Ada, West Virginia
Current Conditions -  °F | °C
As of 8:52 AM on Wednesday 28 Jan 2015 (Local Time) from KBLF Reporting Station
Haze Haze  
Wind Chill: -12°   Ceiling: 900
Heat Index: -8°   Visibility: 5mi
Dew Point: -11°   Wind: 6mph
Humidity: 78%   Direction: 290°WNW
Pressure: 30.2"   Gusts: NA
Location:  37.2994°N, 81.226°W
Report Text: KBLF 281352Z AUTO 29005KT 5SM HZ OVC009 M08/M11 A3020 RMK AO2 SNB14E45 SLP263 P0000 T10781111
Loading
Personal Weather Stations






























Interactive Weather Map New forecast layout! Learn more

10-Day Weather Forecast

Advertisements
Track Severe Weather on mobile